Time;durP1;ratioP1;P1;durP2;ratioP2;P2;SDS_P1;SDS_P2;PMS_P1;PMS_P2;Temp;Humidity;BMP_temperature;BMP_pressure;BME280_temperature;BME280_humidity;BME280_pressure;Samples;Min_cycle;Max_cycle;Signal;HPM_P1;HPM_P2
2022/04/16 00:00:15;;;;;;;14.18;9.68;;;23.70;99.90;;;;;;5032594;28;20052;-58
2022/04/16 00:02:42;;;;;;;15.07;10.23;;;23.60;99.90;;;;;;5032277;28;20030;-59
2022/04/16 00:05:08;;;;;;;13.98;10.13;;;23.70;99.90;;;;;;5031924;28;20068;-59
2022/04/16 00:07:34;;;;;;;13.48;10.05;;;23.60;99.90;;;;;;5032210;28;20462;-59
2022/04/16 00:10:00;;;;;;;14.85;10.18;;;23.60;99.90;;;;;;5030580;28;20123;-59
2022/04/16 00:12:27;;;;;;;13.02;10.32;;;23.60;99.90;;;;;;5031841;28;20029;-60
2022/04/16 00:14:54;;;;;;;14.52;10.15;;;23.60;99.90;;;;;;5031846;28;20025;-60
2022/04/16 00:17:20;;;;;;;14.25;10.90;;;23.60;99.90;;;;;;5031698;28;20072;-59
2022/04/16 00:19:46;;;;;;;14.68;11.25;;;23.60;99.90;;;;;;5031731;28;20404;-59
2022/04/16 00:22:12;;;;;;;12.30;10.13;;;23.60;99.90;;;;;;5031922;28;20373;-59
2022/04/16 00:24:50;;;;;;;15.03;11.23;;;23.60;99.90;;;;;;5030426;28;20029;-59
2022/04/16 00:27:16;;;;;;;15.65;10.52;;;23.60;99.90;;;;;;5031581;28;20497;-58
2022/04/16 00:29:42;;;;;;;13.48;10.93;;;23.50;99.90;;;;;;5031767;28;20040;-59
2022/04/16 00:32:09;;;;;;;15.90;11.38;;;23.60;99.90;;;;;;5031670;28;20021;-58
2022/04/16 00:34:35;;;;;;;15.93;11.30;;;23.50;99.90;;;;;;5031354;28;20057;-59
2022/04/16 00:37:01;;;;;;;14.00;10.20;;;23.50;99.90;;;;;;5031556;28;20030;-58
2022/04/16 00:39:27;;;;;;;15.35;11.32;;;23.50;99.90;;;;;;5031367;28;20017;-59
2022/04/16 00:41:53;;;;;;;13.27;10.70;;;23.50;99.90;;;;;;5031320;28;20092;-60
2022/04/16 00:44:20;;;;;;;16.33;11.77;;;23.50;99.90;;;;;;5031414;28;20432;-58
2022/04/16 00:46:46;;;;;;;;;;;23.50;99.90;;;;;;5031958;28;20123;-59
2022/04/16 00:49:12;;;;;;;17.88;12.65;;;23.50;99.90;;;;;;5031466;28;19940;-61
2022/04/16 00:51:39;;;;;;;15.25;11.75;;;23.50;99.90;;;;;;5031255;28;20028;-61
2022/04/16 00:54:05;;;;;;;15.18;12.25;;;23.50;99.90;;;;;;5031650;28;20017;-61
2022/04/16 00:56:31;;;;;;;16.52;12.85;;;23.50;99.90;;;;;;5030016;28;20397;-59
2022/04/16 00:58:58;;;;;;;18.73;12.80;;;23.50;99.90;;;;;;5031690;28;20025;-61
2022/04/16 01:01:25;;;;;;;16.88;12.35;;;23.50;99.90;;;;;;5031129;28;20063;-60
2022/04/16 01:03:51;;;;;;;16.08;11.85;;;23.50;99.90;;;;;;5031019;28;20045;-59
2022/04/16 01:06:17;;;;;;;16.85;11.80;;;23.50;99.90;;;;;;5031474;28;20477;-62
2022/04/16 01:08:44;;;;;;;16.73;12.15;;;23.40;99.90;;;;;;5030903;28;20087;-61
2022/04/16 01:11:12;;;;;;;19.20;12.55;;;23.40;99.90;;;;;;5029707;28;20021;-59
2022/04/16 01:13:38;;;;;;;14.95;12.05;;;23.40;99.90;;;;;;5030787;28;20037;-63
2022/04/16 01:16:07;;;;;;;16.80;11.95;;;23.40;99.90;;;;;;5030997;28;20029;-59
2022/04/16 01:18:33;;;;;;;17.20;12.45;;;23.40;99.90;;;;;;5031396;28;20022;-58
2022/04/16 01:21:01;;;;;;;18.30;12.85;;;23.40;99.90;;;;;;5030894;28;20103;-59
2022/04/16 01:23:28;;;;;;;15.90;11.90;;;23.40;99.90;;;;;;5030881;28;20032;-59
2022/04/16 01:25:55;;;;;;;16.00;12.05;;;23.40;99.90;;;;;;5030959;28;20207;-59
2022/04/16 01:28:22;;;;;;;15.52;11.77;;;23.40;99.90;;;;;;5033210;28;20485;-59
2022/04/16 01:30:47;;;;;;;14.70;11.05;;;23.40;99.90;;;;;;5034597;28;20041;-59
2022/04/16 01:33:15;;;;;;;15.38;11.63;;;23.40;99.90;;;;;;5034851;28;20029;-59
2022/04/16 01:35:40;;;;;;;15.75;12.20;;;23.40;99.90;;;;;;5034633;28;20036;-59
2022/04/16 01:38:07;;;;;;;17.02;11.98;;;23.30;99.90;;;;;;5034792;28;20021;-58
2022/04/16 01:40:34;;;;;;;16.30;12.10;;;23.40;99.90;;;;;;5035033;28;20083;-58
2022/04/16 01:43:00;;;;;;;16.23;12.13;;;23.40;99.90;;;;;;5034625;28;20099;-59
2022/04/16 01:45:26;;;;;;;17.15;12.75;;;23.40;99.90;;;;;;5034628;28;20108;-58
2022/04/16 01:47:53;;;;;;;16.45;12.57;;;23.30;99.90;;;;;;5034639;28;20091;-59
2022/04/16 01:50:19;;;;;;;17.55;12.80;;;23.30;99.90;;;;;;5034475;28;20037;-59
2022/04/16 01:52:47;;;;;;;17.75;12.93;;;23.40;99.90;;;;;;5034640;28;20026;-58
2022/04/16 01:55:13;;;;;;;18.33;12.40;;;23.30;99.90;;;;;;5034491;28;20022;-58
2022/04/16 01:57:39;;;;;;;16.30;12.55;;;23.30;99.90;;;;;;5034548;28;20485;-57
2022/04/16 02:00:10;;;;;;;17.13;13.05;;;23.30;99.90;;;;;;5033111;28;20056;-58
2022/04/16 02:02:36;;;;;;;19.65;12.68;;;23.30;99.90;;;;;;5034416;28;20107;-58
2022/04/16 02:05:07;;;;;;;18.07;12.40;;;23.30;99.90;;;;;;5034522;28;20028;-58
2022/04/16 02:07:33;;;;;;;17.02;13.52;;;23.30;99.90;;;;;;5008514;28;20025;-57
2022/04/16 02:10:00;;;;;;;16.50;12.63;;;23.30;99.90;;;;;;5034184;28;20045;-57
2022/04/16 02:12:26;;;;;;;17.83;13.07;;;23.30;99.90;;;;;;5032821;28;20120;-58
2022/04/16 02:14:53;;;;;;;22.17;13.02;;;23.30;99.90;;;;;;5034228;28;20037;-58
2022/04/16 02:17:19;;;;;;;16.10;13.18;;;23.30;99.90;;;;;;5034089;28;20083;-57
2022/04/16 02:19:48;;;;;;;15.55;12.43;;;23.30;99.90;;;;;;5034120;28;20033;-58
2022/04/16 02:22:14;;;;;;;18.20;13.35;;;23.30;99.90;;;;;;5034026;28;20107;-58
2022/04/16 02:24:40;;;;;;;17.27;13.07;;;23.30;99.90;;;;;;5033992;28;20029;-57
2022/04/16 02:27:06;;;;;;;16.67;12.73;;;23.30;99.90;;;;;;5034071;28;20026;-58
2022/04/16 02:29:33;;;;;;;18.17;12.73;;;23.30;99.90;;;;;;5033956;28;20033;-57
2022/04/16 02:31:59;;;;;;;17.92;12.45;;;23.30;99.90;;;;;;5033972;28;20052;-57
2022/04/16 02:34:25;;;;;;;18.65;13.43;;;23.30;99.90;;;;;;5033742;28;20029;-57
2022/04/16 02:36:51;;;;;;;18.48;13.90;;;23.20;99.90;;;;;;5033817;28;20083;-57
2022/04/16 02:39:17;;;;;;;18.88;13.27;;;23.30;99.90;;;;;;5033528;28;20022;-58
2022/04/16 02:41:43;;;;;;;18.30;13.38;;;23.20;99.90;;;;;;5033650;28;20017;-59
2022/04/16 02:47:05;;;;;;;18.35;12.80;;;23.20;99.90;;;;;;5033858;28;20032;-58
2022/04/16 02:47:06;;;;;;;18.27;12.85;;;23.20;99.90;;;;;;5033660;28;20058;-58
2022/04/16 02:49:43;;;;;;;19.95;13.63;;;23.20;99.90;;;;;;5033523;28;20041;-59
2022/04/16 02:52:09;;;;;;;19.60;13.90;;;23.20;99.90;;;;;;5033609;28;20021;-59
2022/04/16 02:54:37;;;;;;;17.65;13.27;;;23.30;99.90;;;;;;5033550;28;20030;-60
2022/04/16 02:57:03;;;;;;;18.52;13.18;;;23.20;99.90;;;;;;5033314;28;20025;-59
2022/04/16 02:59:29;;;;;;;17.65;14.00;;;23.20;99.90;;;;;;5042589;23;20025;-57
2022/04/16 03:01:55;;;;;;;16.38;13.27;;;23.20;99.90;;;;;;5028364;28;20120;-58
2022/04/16 03:04:21;;;;;;;17.25;12.82;;;23.20;99.90;;;;;;5032260;28;20124;-58
2022/04/16 03:06:47;;;;;;;18.42;13.60;;;23.20;99.90;;;;;;5032015;28;20036;-59
2022/04/16 03:09:13;;;;;;;17.52;13.23;;;23.20;99.90;;;;;;5030852;28;20033;-58
2022/04/16 03:11:40;;;;;;;17.20;13.30;;;23.20;99.90;;;;;;5030992;28;20017;-58
2022/04/16 03:19:34;;;;;;;17.20;12.90;;;23.20;99.90;;;;;;5007824;28;20107;-57
2022/04/16 03:22:00;;;;;;;18.05;13.13;;;23.20;99.90;;;;;;5031891;28;20029;-57
2022/04/16 03:24:26;;;;;;;16.50;13.18;;;23.20;99.90;;;;;;5031776;28;20033;-56
2022/04/16 03:26:53;;;;;;;16.15;12.88;;;23.20;99.90;;;;;;5031855;28;20412;-57
2022/04/16 03:29:18;;;;;;;18.00;13.80;;;23.20;99.90;;;;;;5031706;28;20033;-57
2022/04/16 03:31:44;;;;;;;18.27;12.93;;;23.20;99.90;;;;;;5031882;28;20032;-56
2022/04/16 03:34:10;;;;;;;16.00;12.60;;;23.20;99.90;;;;;;5031912;28;20543;-55
2022/04/16 03:36:36;;;;;;;18.40;12.65;;;23.20;99.90;;;;;;5031681;28;20420;-56
2022/04/16 03:39:01;;;;;;;18.95;13.85;;;23.20;99.90;;;;;;5013946;28;20128;-56
2022/04/16 03:41:27;;;;;;;17.95;14.18;;;23.20;99.90;;;;;;5031402;28;20025;-54
2022/04/16 03:43:53;;;;;;;17.58;13.32;;;23.20;99.90;;;;;;5031358;28;20028;-55
2022/04/16 03:46:18;;;;;;;19.60;13.05;;;23.20;99.90;;;;;;5031600;28;20052;-56
2022/04/16 03:48:44;;;;;;;18.40;13.88;;;23.10;99.90;;;;;;5031369;28;20022;-56
2022/04/16 03:51:10;;;;;;;19.15;14.13;;;23.20;99.90;;;;;;5031106;28;20053;-56
2022/04/16 03:53:36;;;;;;;19.58;13.85;;;23.10;99.90;;;;;;5031508;28;20033;-55
2022/04/16 04:01:30;;;;;;;16.65;12.68;;;23.10;99.90;;;;;;4977977;28;1583738;-56
2022/04/16 04:03:56;;;;;;;18.58;14.02;;;23.10;99.90;;;;;;5031878;28;20028;-55
2022/04/16 04:06:23;;;;;;;18.75;14.02;;;23.10;99.90;;;;;;5032167;28;20104;-55
2022/04/16 04:08:49;;;;;;;18.80;13.93;;;23.10;99.90;;;;;;5031925;28;20117;-56
2022/04/16 04:11:15;;;;;;;18.58;14.05;;;23.10;99.90;;;;;;5032012;28;20273;-56
2022/04/16 04:13:40;;;;;;;17.40;13.40;;;23.10;99.90;;;;;;5032044;28;20030;-56
2022/04/16 04:16:06;;;;;;;17.75;13.13;;;23.10;99.90;;;;;;5031817;28;20029;-56
2022/04/16 04:18:32;;;;;;;17.63;12.75;;;23.10;99.90;;;;;;5031801;28;20031;-57
2022/04/16 04:20:58;;;;;;;19.25;13.80;;;23.10;99.90;;;;;;5030157;28;20041;-58
2022/04/16 04:23:24;;;;;;;15.48;11.82;;;23.10;99.90;;;;;;5031680;28;20124;-57
2022/04/16 04:25:50;;;;;;;17.80;13.10;;;23.10;99.90;;;;;;5031588;28;20087;-57
2022/04/16 04:28:17;;;;;;;16.35;12.77;;;23.10;99.90;;;;;;5030387;28;20543;-58
2022/04/16 04:30:42;;;;;;;16.40;12.27;;;23.10;99.90;;;;;;5031649;28;20044;-57
2022/04/16 04:33:08;;;;;;;19.30;12.10;;;23.10;99.90;;;;;;5031531;28;20021;-57
2022/04/16 04:35:34;;;;;;;19.48;13.65;;;23.10;99.90;;;;;;5031389;28;20030;-58
2022/04/16 04:38:00;;;;;;;19.27;12.52;;;23.10;99.90;;;;;;5031499;28;20021;-56
2022/04/16 04:40:26;;;;;;;14.98;11.80;;;23.00;99.90;;;;;;5031288;28;20129;-53
2022/04/16 04:42:51;;;;;;;15.57;11.93;;;23.10;99.90;;;;;;5031492;28;20113;-57
2022/04/16 04:45:17;;;;;;;16.90;12.77;;;23.10;99.90;;;;;;5031206;28;20017;-56
2022/04/16 04:47:43;;;;;;;16.95;12.20;;;23.10;99.90;;;;;;5031636;28;20424;-56
2022/04/16 04:50:10;;;;;;;17.58;12.65;;;23.10;99.90;;;;;;5031162;28;20029;-55
2022/04/16 04:52:37;;;;;;;15.98;12.48;;;23.10;99.90;;;;;;5031317;28;20572;-56
2022/04/16 04:55:10;;;;;;;17.30;12.82;;;23.10;99.90;;;;;;5031222;28;20013;-59
2022/04/16 04:57:36;;;;;;;17.98;12.88;;;23.10;99.90;;;;;;5030091;28;20033;-58
2022/04/16 05:00:04;;;;;;;14.30;11.27;;;23.10;99.90;;;;;;5030874;28;20051;-57
2022/04/16 05:02:42;;;;;;;17.52;12.63;;;23.10;99.90;;;;;;5030082;28;20030;-55
2022/04/16 05:05:08;;;;;;;;;;;23.10;99.90;;;;;;5031342;28;20104;-56
2022/04/16 05:07:33;;;;;;;18.85;12.02;;;23.10;99.90;;;;;;5031179;28;19951;-55
2022/04/16 05:09:59;;;;;;;16.65;12.32;;;23.10;99.90;;;;;;5031017;28;20132;-58
2022/04/16 05:12:25;;;;;;;18.55;12.10;;;23.10;99.90;;;;;;5030932;28;20025;-56
2022/04/16 05:14:50;;;;;;;16.95;11.90;;;23.10;99.90;;;;;;5030954;28;20094;-55
2022/04/16 05:17:17;;;;;;;14.75;11.10;;;23.10;99.90;;;;;;5029669;28;20112;-54
2022/04/16 05:19:42;;;;;;;18.77;12.65;;;23.10;99.90;;;;;;5031338;28;20029;-54
2022/04/16 05:22:08;;;;;;;16.10;12.32;;;23.10;99.90;;;;;;5030944;28;20017;-54
2022/04/16 05:24:34;;;;;;;15.60;11.65;;;23.10;99.90;;;;;;5030913;28;20087;-55
2022/04/16 05:26:59;;;;;;;16.13;11.73;;;23.10;99.90;;;;;;5030882;28;20044;-54
2022/04/16 05:29:25;;;;;;;14.77;11.15;;;23.10;99.90;;;;;;5030786;28;20045;-54
2022/04/16 05:31:51;;;;;;;15.93;11.85;;;23.00;99.90;;;;;;5030889;28;20045;-54
2022/04/16 05:34:20;;;;;;;16.20;11.00;;;23.10;99.90;;;;;;5030990;28;20053;-55
2022/04/16 05:36:50;;;;;;;15.43;10.63;;;23.00;99.90;;;;;;5030945;28;20037;-54
2022/04/16 05:39:17;;;;;;;16.45;11.07;;;23.00;99.90;;;;;;5031070;28;20490;-55
2022/04/16 05:41:43;;;;;;;14.50;10.17;;;23.00;99.90;;;;;;5030696;28;20025;-55
2022/04/16 05:44:09;;;;;;;15.52;10.98;;;23.00;99.90;;;;;;5030656;28;20500;-55
2022/04/16 05:46:35;;;;;;;15.90;10.98;;;23.10;99.90;;;;;;5030587;28;20127;-55
2022/04/16 05:49:00;;;;;;;13.90;10.90;;;23.00;99.90;;;;;;5030605;28;20161;-56
2022/04/16 05:51:27;;;;;;;15.45;10.85;;;23.00;99.90;;;;;;5030572;28;20388;-55
2022/04/16 05:53:53;;;;;;;15.65;10.93;;;23.00;99.90;;;;;;5030697;28;20420;-55
2022/04/16 05:56:21;;;;;;;15.27;10.88;;;23.00;99.90;;;;;;5030756;28;20036;-56
2022/04/16 05:58:47;;;;;;;14.00;9.88;;;23.00;99.90;;;;;;5030680;28;20029;-56
2022/04/16 06:01:14;;;;;;;14.68;11.68;;;23.00;99.90;;;;;;5030347;28;20041;-56
2022/04/16 06:03:40;;;;;;;12.73;9.97;;;23.00;99.90;;;;;;5030520;28;20026;-56
2022/04/16 06:06:09;;;;;;;14.70;11.43;;;23.00;99.90;;;;;;5030494;28;20032;-57
2022/04/16 06:08:36;;;;;;;15.57;10.48;;;23.00;99.90;;;;;;5030378;28;20424;-57
2022/04/16 06:11:03;;;;;;;13.48;10.50;;;23.00;99.90;;;;;;5030465;28;20068;-57
2022/04/16 06:13:32;;;;;;;17.85;10.68;;;23.00;99.90;;;;;;5031122;28;20034;-58
2022/04/16 06:15:58;;;;;;;15.27;10.32;;;23.00;99.90;;;;;;5033877;28;20495;-57
2022/04/16 06:18:24;;;;;;;16.50;9.53;;;23.00;99.90;;;;;;5033993;28;20029;-57
2022/04/16 06:20:50;;;;;;;13.52;10.10;;;23.00;99.90;;;;;;5034090;28;20374;-56
2022/04/16 06:23:18;;;;;;;12.10;9.57;;;23.10;99.90;;;;;;5032767;28;20071;-54
2022/04/16 06:25:44;;;;;;;15.82;9.52;;;23.00;99.90;;;;;;5033715;28;20029;-57
2022/04/16 06:28:10;;;;;;;12.85;10.25;;;23.10;99.90;;;;;;5033752;28;20022;-55
2022/04/16 06:30:35;;;;;;;13.57;10.27;;;23.00;99.90;;;;;;5033522;28;20037;-55
2022/04/16 06:33:01;;;;;;;13.52;9.68;;;23.00;99.90;;;;;;5033694;28;20029;-55
2022/04/16 06:35:27;;;;;;;14.50;10.35;;;23.10;99.90;;;;;;5033806;28;20431;-56
2022/04/16 06:37:53;;;;;;;12.77;10.05;;;23.00;99.90;;;;;;5033553;28;20036;-56
2022/04/16 06:40:18;;;;;;;13.32;9.00;;;23.10;99.90;;;;;;5032512;28;20026;-56
2022/04/16 06:42:44;;;;;;;14.35;9.05;;;23.10;99.90;;;;;;5033484;28;20022;-60
2022/04/16 06:45:12;;;;;;;13.52;9.70;;;23.00;99.90;;;;;;5033381;28;20009;-58
2022/04/16 06:47:38;;;;;;;14.43;9.23;;;23.00;99.90;;;;;;5033590;28;20100;-59
2022/04/16 06:50:06;;;;;;;11.77;9.15;;;23.10;99.90;;;;;;5033226;28;20045;-59
2022/04/16 06:52:32;;;;;;;;;;;23.10;99.90;;;;;;5033895;28;20029;-60
2022/04/16 06:54:58;;;;;;;13.25;10.00;;;23.10;99.90;;;;;;5033427;28;20375;-60
2022/04/16 06:57:24;;;;;;;16.15;12.05;;;23.10;99.90;;;;;;5033150;28;20025;-58
2022/04/16 06:59:50;;;;;;;18.27;13.38;;;23.10;99.90;;;;;;5033293;28;20037;-56
2022/04/16 07:02:16;;;;;;;18.00;12.93;;;23.10;99.90;;;;;;5033205;28;20033;-57
2022/04/16 07:04:42;;;;;;;18.85;12.73;;;23.10;99.90;;;;;;5033305;28;20678;-54
2022/04/16 07:07:08;;;;;;;15.25;11.38;;;23.10;99.90;;;;;;5033028;28;20024;-56
2022/04/16 07:09:38;;;;;;;15.40;11.10;;;23.10;99.90;;;;;;5032923;28;20116;-54
2022/04/16 07:12:09;;;;;;;14.50;10.80;;;23.10;99.90;;;;;;5032856;28;20029;-57
2022/04/16 07:14:36;;;;;;;14.50;11.57;;;23.10;99.90;;;;;;5032976;28;20489;-56
2022/04/16 07:17:02;;;;;;;16.98;11.20;;;23.10;99.90;;;;;;5032814;28;20036;-57
2022/04/16 07:19:29;;;;;;;19.15;10.77;;;23.10;99.90;;;;;;5032985;28;20040;-58
2022/04/16 07:21:55;;;;;;;12.00;9.82;;;23.10;99.90;;;;;;5032772;28;20025;-58
2022/04/16 07:24:22;;;;;;;16.08;10.45;;;23.10;99.90;;;;;;5032647;28;20026;-58
2022/04/16 07:26:48;;;;;;;14.02;10.25;;;23.10;99.90;;;;;;5031937;28;20036;-57
2022/04/16 07:29:14;;;;;;;15.85;9.80;;;23.10;99.90;;;;;;5032472;28;20037;-58
2022/04/16 07:31:40;;;;;;;13.20;10.52;;;23.10;99.90;;;;;;5032653;28;20026;-58
2022/04/16 07:34:06;;;;;;;13.45;9.88;;;23.10;99.90;;;;;;5032457;28;20496;-56
2022/04/16 07:36:32;;;;;;;15.10;10.35;;;23.20;99.90;;;;;;5032486;28;20473;-56
2022/04/16 07:38:58;;;;;;;14.57;9.93;;;23.20;99.90;;;;;;5032756;28;20191;-57
2022/04/16 07:41:23;;;;;;;19.17;11.18;;;23.20;99.90;;;;;;5032317;28;20370;-57
2022/04/16 07:43:49;;;;;;;15.82;10.60;;;23.20;99.90;;;;;;5032500;28;20017;-57
2022/04/16 07:46:18;;;;;;;15.23;10.80;;;23.20;99.90;;;;;;5032397;28;20044;-57
2022/04/16 07:48:44;;;;;;;13.07;9.70;;;23.20;99.90;;;;;;5032007;28;20025;-57
2022/04/16 07:51:10;;;;;;;11.60;9.38;;;23.20;99.90;;;;;;5032110;28;20026;-57
2022/04/16 07:53:36;;;;;;;12.75;10.25;;;23.20;99.90;;;;;;5032000;28;20112;-57
2022/04/16 07:56:02;;;;;;;15.32;10.38;;;23.30;99.90;;;;;;5032050;28;20033;-56
2022/04/16 07:58:28;;;;;;;13.23;10.38;;;23.20;99.90;;;;;;5030702;28;20021;-57
2022/04/16 08:00:53;;;;;;;15.73;10.52;;;23.20;99.90;;;;;;5030880;28;20052;-57
2022/04/16 08:03:19;;;;;;;13.05;9.60;;;23.20;99.90;;;;;;5031829;28;20030;-56
2022/04/16 08:05:45;;;;;;;13.73;9.70;;;23.20;99.90;;;;;;5031761;28;20450;-57
2022/04/16 08:08:11;;;;;;;14.15;9.60;;;23.20;99.90;;;;;;5031816;28;20033;-56
2022/04/16 08:10:37;;;;;;;13.63;9.95;;;23.20;99.90;;;;;;5030333;28;20508;-56
2022/04/16 08:13:05;;;;;;;12.43;9.38;;;23.30;99.90;;;;;;5032105;28;20029;-57
2022/04/16 08:15:31;;;;;;;14.88;10.07;;;23.30;99.90;;;;;;5031640;28;20109;-57
2022/04/16 08:17:57;;;;;;;12.40;9.13;;;23.30;99.90;;;;;;5032086;28;20036;-57
2022/04/16 08:20:23;;;;;;;14.38;9.98;;;23.30;99.90;;;;;;5031829;28;20021;-57
2022/04/16 08:22:49;;;;;;;13.95;8.93;;;23.20;99.90;;;;;;5030503;28;20029;-59
2022/04/16 08:27:47;;;;;;;10.52;8.23;;;23.30;99.90;;;;;;5031649;28;20373;-57
2022/04/16 08:30:14;;;;;;;11.52;8.55;;;23.30;99.90;;;;;;5031656;28;20030;-56
2022/04/16 08:32:44;;;;;;;11.45;9.30;;;23.30;99.90;;;;;;5031419;28;20072;-57
2022/04/16 08:35:12;;;;;;;9.63;7.65;;;23.30;99.90;;;;;;5031489;28;20025;-57
2022/04/16 08:37:38;;;;;;;10.38;8.27;;;23.30;99.90;;;;;;5031486;28;20022;-57
2022/04/16 08:40:06;;;;;;;11.88;8.15;;;23.30;99.90;;;;;;5031293;28;20022;-57
2022/04/16 08:42:37;;;;;;;11.25;7.97;;;23.30;99.90;;;;;;5030001;28;20033;-57
2022/04/16 08:45:04;;;;;;;9.13;8.02;;;23.30;99.90;;;;;;5031022;28;20018;-56
2022/04/16 08:47:31;;;;;;;10.90;7.57;;;23.30;99.90;;;;;;5031417;28;20018;-55
2022/04/16 08:49:59;;;;;;;13.05;8.65;;;23.30;99.90;;;;;;5029927;28;20539;-55
2022/04/16 08:52:30;;;;;;;10.98;8.70;;;23.30;99.90;;;;;;5031330;28;20367;-58
2022/04/16 08:54:57;;;;;;;11.45;8.25;;;23.30;99.90;;;;;;5031257;28;20022;-58
2022/04/16 08:57:23;;;;;;;10.02;8.10;;;23.30;99.90;;;;;;5031138;28;20076;-58
2022/04/16 08:59:53;;;;;;;12.52;7.85;;;23.30;99.90;;;;;;5030868;28;20095;-55
2022/04/16 09:02:24;;;;;;;11.90;8.15;;;23.40;99.90;;;;;;5031196;28;20026;-58
2022/04/16 09:05:04;;;;;;;13.82;8.00;;;23.40;99.90;;;;;;5031109;28;20359;-59
2022/04/16 09:07:30;;;;;;;10.13;7.38;;;23.40;99.90;;;;;;5004186;28;20114;-60
2022/04/16 09:10:07;;;;;;;11.38;7.82;;;23.40;99.90;;;;;;5029777;28;20044;-58
2022/04/16 09:12:39;;;;;;;10.35;7.32;;;23.40;99.90;;;;;;5030937;28;20022;-59
2022/04/16 09:15:09;;;;;;;11.05;7.30;;;23.40;99.90;;;;;;5031034;28;20021;-58
2022/04/16 09:17:36;;;;;;;10.98;7.22;;;23.40;99.90;;;;;;5030837;28;20363;-59
2022/04/16 09:20:08;;;;;;;10.48;6.75;;;23.40;99.90;;;;;;5030991;28;20119;-58
2022/04/16 09:22:35;;;;;;;11.35;6.95;;;23.40;99.90;;;;;;5030882;28;20033;-58
2022/04/16 09:25:02;;;;;;;11.55;8.10;;;23.40;99.90;;;;;;5030703;28;20040;-56
2022/04/16 09:27:39;;;;;;;14.25;7.30;;;23.40;99.90;;;;;;5030817;28;20385;-56
2022/04/16 09:30:05;;;;;;;10.02;7.53;;;23.40;99.90;;;;;;5029453;28;20030;-56
2022/04/16 09:32:45;;;;;;;14.48;8.75;;;23.50;99.90;;;;;;5030535;28;20069;-57
2022/04/16 09:35:27;;;;;;;11.50;7.95;;;23.50;99.90;;;;;;5030645;28;20040;-56
2022/04/16 09:37:57;;;;;;;11.85;8.40;;;23.50;99.90;;;;;;5030361;28;20483;-58
2022/04/16 09:40:25;;;;;;;10.85;8.10;;;23.50;99.90;;;;;;5029506;28;20550;-56
2022/04/16 09:42:56;;;;;;;13.35;8.93;;;23.50;99.90;;;;;;5030694;28;20029;-57
2022/04/16 09:45:22;;;;;;;16.13;9.57;;;23.50;99.90;;;;;;5030754;28;20021;-58
2022/04/16 09:47:52;;;;;;;16.10;9.07;;;23.50;99.90;;;;;;5030624;28;20026;-57
2022/04/16 09:50:20;;;;;;;11.57;8.88;;;23.60;99.90;;;;;;5034166;28;20155;-58
2022/04/16 09:53:00;;;;;;;13.90;8.77;;;23.60;99.90;;;;;;5034448;28;20017;-59
2022/04/16 09:55:27;;;;;;;13.00;8.82;;;23.60;99.90;;;;;;5034344;28;20026;-59
2022/04/16 09:57:57;;;;;;;12.50;9.43;;;23.60;99.90;;;;;;5034382;28;20155;-58
2022/04/16 10:00:24;;;;;;;12.00;8.75;;;23.60;99.90;;;;;;5032798;28;20033;-58
2022/04/16 10:02:51;;;;;;;11.18;8.85;;;23.70;99.90;;;;;;5034269;28;20026;-58
2022/04/16 10:05:19;;;;;;;14.50;9.75;;;23.70;99.90;;;;;;5034101;28;20112;-57
2022/04/16 10:07:47;;;;;;;12.32;8.55;;;23.70;99.90;;;;;;5034280;28;20481;-58
2022/04/16 10:10:41;;;;;;;;;;;23.70;99.90;;;;;;5034308;28;20066;-58
2022/04/16 10:13:05;;;;;;;14.90;8.88;;;23.80;99.90;;;;;;5034038;28;19912;-58
2022/04/16 10:15:55;;;;;;;11.73;8.25;;;23.80;99.90;;;;;;5034183;28;20037;-58
2022/04/16 10:18:21;;;;;;;16.15;9.70;;;23.80;99.90;;;;;;5034085;28;20037;-58
2022/04/16 10:20:51;;;;;;;14.38;8.30;;;23.80;99.90;;;;;;5033706;28;20017;-57
2022/04/16 10:23:30;;;;;;;11.52;8.90;;;23.90;99.90;;;;;;5033806;28;20159;-57
2022/04/16 10:26:06;;;;;;;14.18;8.80;;;23.90;99.90;;;;;;5033737;28;20036;-57
2022/04/16 10:28:53;;;;;;;16.40;8.77;;;23.90;99.90;;;;;;5032971;28;20014;-58
2022/04/16 10:31:27;;;;;;;;;;;23.90;99.90;;;;;;5032788;28;20120;-58
2022/04/16 10:33:58;;;;;;;12.52;8.20;;;24.00;99.90;;;;;;5033569;28;19905;-59
2022/04/16 10:36:38;;;;;;;12.13;8.25;;;24.00;99.90;;;;;;5033702;28;20029;-58
2022/04/16 10:39:18;;;;;;;12.48;8.25;;;24.00;99.90;;;;;;5033393;28;20385;-59
2022/04/16 10:42:01;;;;;;;12.02;9.27;;;24.00;99.90;;;;;;5033482;28;20069;-58
2022/04/16 10:44:29;;;;;;;12.18;9.52;;;24.10;99.90;;;;;;5033717;28;20017;-59
2022/04/16 10:46:58;;;;;;;17.10;9.95;;;24.10;99.90;;;;;;5033388;28;20049;-59
2022/04/16 10:49:25;;;;;;;14.63;10.60;;;24.10;99.90;;;;;;5033341;28;20037;-57
2022/04/16 10:51:52;;;;;;;14.68;9.70;;;24.10;99.90;;;;;;5033321;28;20021;-57
2022/04/16 10:54:34;;;;;;;19.38;11.00;;;24.10;99.90;;;;;;5033348;28;20426;-57
2022/04/16 10:57:01;;;;;;;18.55;11.25;;;24.20;99.90;;;;;;5032058;28;20108;-57
2022/04/16 10:59:41;;;;;;;15.30;10.52;;;24.20;99.90;;;;;;5032628;28;20026;-57
2022/04/16 11:02:23;;;;;;;13.55;9.88;;;24.20;99.90;;;;;;5031420;28;20030;-58
2022/04/16 11:05:10;;;;;;;16.08;10.35;;;24.20;99.90;;;;;;5033040;28;20041;-58
2022/04/16 11:07:37;;;;;;;14.70;10.93;;;24.30;99.90;;;;;;5007660;28;20017;-56
2022/04/16 11:10:06;;;;;;;15.77;10.20;;;24.30;99.90;;;;;;5033163;28;20048;-58
2022/04/16 11:12:32;;;;;;;13.15;10.00;;;24.30;99.90;;;;;;5033189;28;20037;-58
2022/04/16 11:14:59;;;;;;;14.13;9.82;;;24.30;99.90;;;;;;5033077;28;20025;-58
2022/04/16 11:17:25;;;;;;;15.95;9.95;;;24.30;99.90;;;;;;5032790;28;20033;-57
2022/04/16 11:19:59;;;;;;;14.60;10.18;;;24.40;99.90;;;;;;5032773;28;20419;-58
2022/04/16 11:22:25;;;;;;;15.02;10.50;;;24.40;99.90;;;;;;5032703;28;20457;-58
2022/04/16 11:24:51;;;;;;;16.08;10.70;;;24.40;99.90;;;;;;5032807;28;20025;-58
2022/04/16 11:35:58;;;;;;;19.00;11.95;;;24.50;99.90;;;;;;5032340;28;20036;-60
2022/04/16 11:38:32;;;;;;;17.35;13.23;;;24.50;99.90;;;;;;5032413;28;20033;-59
2022/04/16 11:41:04;;;;;;;16.15;12.45;;;24.50;99.90;;;;;;5032373;28;20116;-60
2022/04/16 11:43:31;;;;;;;17.30;12.18;;;24.60;99.90;;;;;;5032316;28;20056;-60
2022/04/16 11:46:04;;;;;;;17.13;12.13;;;24.60;99.90;;;;;;5032332;28;20021;-60
2022/04/16 11:48:32;;;;;;;14.75;11.60;;;24.60;99.90;;;;;;5032077;28;20030;-60
2022/04/16 11:50:59;;;;;;;19.70;11.88;;;24.60;99.90;;;;;;5032084;28;20041;-58
2022/04/16 11:53:24;;;;;;;18.83;11.65;;;24.60;99.90;;;;;;5031990;28;20116;-61
2022/04/16 11:55:52;;;;;;;15.18;10.73;;;24.60;99.90;;;;;;5032100;28;20121;-59
2022/04/16 11:58:18;;;;;;;15.45;11.20;;;24.60;99.90;;;;;;5032176;28;20025;-59
2022/04/16 12:00:48;;;;;;;13.65;10.23;;;24.70;99.90;;;;;;5031885;28;20096;-57
2022/04/16 12:03:17;;;;;;;13.43;10.77;;;24.70;99.90;;;;;;5031920;28;20485;-60
2022/04/16 12:05:44;;;;;;;14.48;9.75;;;24.70;99.90;;;;;;5031878;28;20377;-60
2022/04/16 12:08:10;;;;;;;15.07;10.93;;;24.70;99.90;;;;;;5032625;28;20083;-58
2022/04/16 12:10:42;;;;;;;18.50;11.80;;;24.70;99.90;;;;;;5031941;28;20078;-59
2022/04/16 12:13:11;;;;;;;15.98;11.48;;;24.70;99.90;;;;;;5031984;28;20373;-59
2022/04/16 12:15:44;;;;;;;15.48;11.10;;;24.70;99.90;;;;;;5032050;28;20156;-59
2022/04/16 12:18:12;;;;;;;16.98;11.02;;;24.70;99.90;;;;;;5031822;28;20078;-60
2022/04/16 12:20:42;;;;;;;15.80;10.65;;;24.70;99.90;;;;;;5031978;28;20036;-59
2022/04/16 12:23:12;;;;;;;14.27;10.93;;;24.70;99.90;;;;;;5031954;28;20032;-58
2022/04/16 12:25:40;;;;;;;15.23;11.45;;;24.70;99.90;;;;;;5031898;28;20036;-61
2022/04/16 12:28:14;;;;;;;17.05;10.85;;;24.70;99.90;;;;;;5031854;28;20027;-60
2022/04/16 12:30:40;;;;;;;13.70;9.88;;;24.70;99.90;;;;;;5031465;28;20445;-60
2022/04/16 12:33:10;;;;;;;16.50;10.00;;;24.70;99.90;;;;;;5031768;28;20366;-60
2022/04/16 12:35:38;;;;;;;12.80;9.32;;;24.70;99.90;;;;;;5031822;28;20044;-60
2022/04/16 12:38:05;;;;;;;13.27;9.02;;;24.70;99.90;;;;;;5004057;28;20021;-60
2022/04/16 12:40:32;;;;;;;12.40;9.32;;;24.80;99.90;;;;;;5030157;28;20083;-60
2022/04/16 12:42:59;;;;;;;;;;;24.70;99.90;;;;;;5031759;28;20033;-60
2022/04/16 12:45:26;;;;;;;14.43;9.32;;;24.70;99.90;;;;;;5031340;28;19932;-60
2022/04/16 12:47:52;;;;;;;14.98;8.77;;;24.70;99.90;;;;;;5029984;28;20037;-59
2022/04/16 12:50:19;;;;;;;11.40;8.50;;;24.70;99.90;;;;;;5029826;28;20489;-60
2022/04/16 12:52:45;;;;;;;12.90;8.45;;;24.70;99.90;;;;;;5031192;28;20029;-60
2022/04/16 12:55:12;;;;;;;10.55;8.25;;;24.70;99.90;;;;;;5031148;28;20025;-60